sensor_id;sensor_type;location;lat;lon;timestamp;P1;durP1;ratioP1;P2;durP2;ratioP2
2544;SDS011;36212;48.838;9.142;2022-07-22T00:00:47;8.37;;;7.67;;
2544;SDS011;36212;48.838;9.142;2022-07-22T00:03:20;7.67;;;7.20;;
2544;SDS011;36212;48.838;9.142;2022-07-22T00:05:52;7.20;;;6.50;;
2544;SDS011;36212;48.838;9.142;2022-07-22T00:08:24;11.60;;;7.10;;
2544;SDS011;36212;48.838;9.142;2022-07-22T00:10:56;8.30;;;7.70;;
2544;SDS011;36212;48.838;9.142;2022-07-22T00:13:29;9.20;;;8.20;;
2544;SDS011;36212;48.838;9.142;2022-07-22T00:18:36;7.77;;;7.27;;
2544;SDS011;36212;48.838;9.142;2022-07-22T00:21:08;10.60;;;8.53;;
2544;SDS011;36212;48.838;9.142;2022-07-22T00:23:42;9.00;;;8.20;;
2544;SDS011;36212;48.838;9.142;2022-07-22T00:26:15;8.27;;;7.47;;
2544;SDS011;36212;48.838;9.142;2022-07-22T00:28:48;8.33;;;7.73;;
2544;SDS011;36212;48.838;9.142;2022-07-22T00:31:20;8.73;;;8.03;;
2544;SDS011;36212;48.838;9.142;2022-07-22T00:33:52;8.23;;;7.63;;
2544;SDS011;36212;48.838;9.142;2022-07-22T00:36:24;8.53;;;7.83;;
2544;SDS011;36212;48.838;9.142;2022-07-22T00:38:57;8.63;;;7.87;;
2544;SDS011;36212;48.838;9.142;2022-07-22T00:41:31;8.50;;;7.90;;
2544;SDS011;36212;48.838;9.142;2022-07-22T00:44:08;9.03;;;8.33;;
2544;SDS011;36212;48.838;9.142;2022-07-22T00:46:41;10.73;;;8.30;;
2544;SDS011;36212;48.838;9.142;2022-07-22T00:49:13;8.40;;;7.80;;
2544;SDS011;36212;48.838;9.142;2022-07-22T00:51:46;9.00;;;8.40;;
2544;SDS011;36212;48.838;9.142;2022-07-22T00:54:19;8.57;;;7.93;;
2544;SDS011;36212;48.838;9.142;2022-07-22T00:57:23;9.00;;;8.47;;
2544;SDS011;36212;48.838;9.142;2022-07-22T00:59:57;8.40;;;7.80;;
2544;SDS011;36212;48.838;9.142;2022-07-22T01:02:29;7.83;;;7.33;;
2544;SDS011;36212;48.838;9.142;2022-07-22T01:05:08;8.80;;;8.10;;
2544;SDS011;36212;48.838;9.142;2022-07-22T01:07:41;8.60;;;8.00;;
2544;SDS011;36212;48.838;9.142;2022-07-22T01:10:13;8.20;;;7.50;;
2544;SDS011;36212;48.838;9.142;2022-07-22T01:12:45;8.63;;;7.93;;
2544;SDS011;36212;48.838;9.142;2022-07-22T01:15:18;8.97;;;7.80;;
2544;SDS011;36212;48.838;9.142;2022-07-22T01:17:50;8.27;;;7.67;;
2544;SDS011;36212;48.838;9.142;2022-07-22T01:20:22;8.10;;;7.60;;
2544;SDS011;36212;48.838;9.142;2022-07-22T01:22:56;8.03;;;7.53;;
2544;SDS011;36212;48.838;9.142;2022-07-22T01:25:28;7.93;;;7.43;;
2544;SDS011;36212;48.838;9.142;2022-07-22T01:28:00;8.63;;;8.03;;
2544;SDS011;36212;48.838;9.142;2022-07-22T01:30:32;9.10;;;8.40;;
2544;SDS011;36212;48.838;9.142;2022-07-22T01:33:04;10.80;;;8.70;;
2544;SDS011;36212;48.838;9.142;2022-07-22T01:35:36;8.40;;;7.70;;
2544;SDS011;36212;48.838;9.142;2022-07-22T01:38:08;8.67;;;8.17;;
2544;SDS011;36212;48.838;9.142;2022-07-22T01:40:42;9.80;;;9.00;;
2544;SDS011;36212;48.838;9.142;2022-07-22T01:43:15;9.63;;;8.77;;
2544;SDS011;36212;48.838;9.142;2022-07-22T01:45:51;8.17;;;7.47;;
2544;SDS011;36212;48.838;9.142;2022-07-22T01:48:24;7.93;;;7.33;;
2544;SDS011;36212;48.838;9.142;2022-07-22T01:50:58;8.90;;;8.10;;
2544;SDS011;36212;48.838;9.142;2022-07-22T01:53:30;9.67;;;8.87;;
2544;SDS011;36212;48.838;9.142;2022-07-22T01:56:03;10.13;;;9.23;;
2544;SDS011;36212;48.838;9.142;2022-07-22T01:58:36;10.00;;;9.30;;
2544;SDS011;36212;48.838;9.142;2022-07-22T02:01:11;9.47;;;8.87;;
2544;SDS011;36212;48.838;9.142;2022-07-22T02:03:43;9.70;;;8.80;;
2544;SDS011;36212;48.838;9.142;2022-07-22T02:06:18;10.00;;;9.17;;
2544;SDS011;36212;48.838;9.142;2022-07-22T02:08:50;9.50;;;8.80;;
2544;SDS011;36212;48.838;9.142;2022-07-22T02:11:22;9.07;;;8.47;;
2544;SDS011;36212;48.838;9.142;2022-07-22T02:13:54;9.47;;;8.67;;
2544;SDS011;36212;48.838;9.142;2022-07-22T02:16:26;9.23;;;8.53;;
2544;SDS011;36212;48.838;9.142;2022-07-22T02:18:58;10.03;;;9.23;;
2544;SDS011;36212;48.838;9.142;2022-07-22T02:21:31;10.13;;;9.33;;
2544;SDS011;36212;48.838;9.142;2022-07-22T02:24:04;10.30;;;9.60;;
2544;SDS011;36212;48.838;9.142;2022-07-22T02:26:36;11.13;;;10.17;;
2544;SDS011;36212;48.838;9.142;2022-07-22T02:29:08;10.33;;;9.53;;
2544;SDS011;36212;48.838;9.142;2022-07-22T02:31:43;11.60;;;10.70;;
2544;SDS011;36212;48.838;9.142;2022-07-22T02:34:15;10.53;;;9.83;;
2544;SDS011;36212;48.838;9.142;2022-07-22T02:36:47;10.43;;;9.43;;
2544;SDS011;36212;48.838;9.142;2022-07-22T02:39:19;9.93;;;9.27;;
2544;SDS011;36212;48.838;9.142;2022-07-22T02:41:51;10.33;;;9.50;;
2544;SDS011;36212;48.838;9.142;2022-07-22T02:44:24;10.13;;;9.23;;
2544;SDS011;36212;48.838;9.142;2022-07-22T02:46:56;11.43;;;10.33;;
2544;SDS011;36212;48.838;9.142;2022-07-22T02:49:28;9.57;;;8.87;;
2544;SDS011;36212;48.838;9.142;2022-07-22T02:52:00;11.00;;;10.20;;
2544;SDS011;36212;48.838;9.142;2022-07-22T02:54:32;10.40;;;9.70;;
2544;SDS011;36212;48.838;9.142;2022-07-22T02:57:04;11.50;;;10.53;;
2544;SDS011;36212;48.838;9.142;2022-07-22T02:59:36;10.77;;;9.97;;
2544;SDS011;36212;48.838;9.142;2022-07-22T03:02:08;11.60;;;10.60;;
2544;SDS011;36212;48.838;9.142;2022-07-22T03:04:40;11.27;;;10.47;;
2544;SDS011;36212;48.838;9.142;2022-07-22T03:07:13;12.03;;;10.97;;
2544;SDS011;36212;48.838;9.142;2022-07-22T03:09:45;11.33;;;10.20;;
2544;SDS011;36212;48.838;9.142;2022-07-22T03:12:17;11.73;;;10.83;;
2544;SDS011;36212;48.838;9.142;2022-07-22T03:14:49;11.60;;;10.60;;
2544;SDS011;36212;48.838;9.142;2022-07-22T03:17:22;12.57;;;11.60;;
2544;SDS011;36212;48.838;9.142;2022-07-22T03:19:54;11.47;;;10.60;;
2544;SDS011;36212;48.838;9.142;2022-07-22T03:22:26;12.20;;;11.40;;
2544;SDS011;36212;48.838;9.142;2022-07-22T03:24:58;12.33;;;11.33;;
2544;SDS011;36212;48.838;9.142;2022-07-22T03:27:31;11.80;;;10.90;;
2544;SDS011;36212;48.838;9.142;2022-07-22T03:30:04;13.17;;;12.07;;
2544;SDS011;36212;48.838;9.142;2022-07-22T03:32:37;12.07;;;11.07;;
2544;SDS011;36212;48.838;9.142;2022-07-22T03:35:14;11.77;;;10.67;;
2544;SDS011;36212;48.838;9.142;2022-07-22T03:37:47;13.03;;;11.77;;
2544;SDS011;36212;48.838;9.142;2022-07-22T03:40:22;11.63;;;10.83;;
2544;SDS011;36212;48.838;9.142;2022-07-22T03:42:54;12.90;;;11.90;;
2544;SDS011;36212;48.838;9.142;2022-07-22T03:45:26;11.90;;;10.87;;
2544;SDS011;36212;48.838;9.142;2022-07-22T03:47:58;10.70;;;10.00;;
2544;SDS011;36212;48.838;9.142;2022-07-22T03:50:30;11.10;;;10.23;;
2544;SDS011;36212;48.838;9.142;2022-07-22T03:53:03;11.50;;;10.70;;
2544;SDS011;36212;48.838;9.142;2022-07-22T03:55:36;12.47;;;11.47;;
2544;SDS011;36212;48.838;9.142;2022-07-22T03:58:08;12.17;;;11.27;;
2544;SDS011;36212;48.838;9.142;2022-07-22T04:00:40;12.73;;;11.43;;
2544;SDS011;36212;48.838;9.142;2022-07-22T04:03:12;12.37;;;11.43;;
2544;SDS011;36212;48.838;9.142;2022-07-22T04:05:45;12.03;;;11.10;;
2544;SDS011;36212;48.838;9.142;2022-07-22T04:08:18;11.80;;;11.00;;
2544;SDS011;36212;48.838;9.142;2022-07-22T04:10:50;14.07;;;12.93;;
2544;SDS011;36212;48.838;9.142;2022-07-22T04:13:22;13.60;;;12.47;;
2544;SDS011;36212;48.838;9.142;2022-07-22T04:15:54;11.50;;;10.70;;
2544;SDS011;36212;48.838;9.142;2022-07-22T04:18:26;11.13;;;10.33;;
2544;SDS011;36212;48.838;9.142;2022-07-22T04:21:00;11.60;;;10.60;;
2544;SDS011;36212;48.838;9.142;2022-07-22T04:23:32;13.87;;;12.77;;
2544;SDS011;36212;48.838;9.142;2022-07-22T04:26:05;13.50;;;12.50;;
2544;SDS011;36212;48.838;9.142;2022-07-22T04:28:38;13.60;;;12.30;;
2544;SDS011;36212;48.838;9.142;2022-07-22T04:31:10;12.80;;;11.90;;
2544;SDS011;36212;48.838;9.142;2022-07-22T04:33:44;13.03;;;12.03;;
2544;SDS011;36212;48.838;9.142;2022-07-22T04:36:18;13.57;;;12.40;;
2544;SDS011;36212;48.838;9.142;2022-07-22T04:38:50;12.53;;;11.63;;
2544;SDS011;36212;48.838;9.142;2022-07-22T04:41:23;12.13;;;11.23;;
2544;SDS011;36212;48.838;9.142;2022-07-22T04:43:55;14.33;;;13.13;;
2544;SDS011;36212;48.838;9.142;2022-07-22T04:46:27;15.10;;;13.80;;
2544;SDS011;36212;48.838;9.142;2022-07-22T04:48:59;15.60;;;14.30;;
2544;SDS011;36212;48.838;9.142;2022-07-22T04:51:31;14.13;;;12.97;;
2544;SDS011;36212;48.838;9.142;2022-07-22T04:54:03;14.10;;;13.10;;
2544;SDS011;36212;48.838;9.142;2022-07-22T04:56:37;14.13;;;12.93;;
2544;SDS011;36212;48.838;9.142;2022-07-22T04:59:09;12.40;;;11.40;;
2544;SDS011;36212;48.838;9.142;2022-07-22T05:01:42;13.00;;;12.10;;
2544;SDS011;36212;48.838;9.142;2022-07-22T05:04:14;13.43;;;12.43;;
2544;SDS011;36212;48.838;9.142;2022-07-22T05:06:46;14.30;;;13.30;;
2544;SDS011;36212;48.838;9.142;2022-07-22T05:09:18;13.23;;;12.13;;
2544;SDS011;36212;48.838;9.142;2022-07-22T05:11:52;13.33;;;12.13;;
2544;SDS011;36212;48.838;9.142;2022-07-22T05:14:24;13.33;;;11.90;;
2544;SDS011;36212;48.838;9.142;2022-07-22T05:16:56;13.93;;;12.83;;
2544;SDS011;36212;48.838;9.142;2022-07-22T05:19:29;13.83;;;12.73;;
2544;SDS011;36212;48.838;9.142;2022-07-22T05:22:01;15.23;;;14.03;;
2544;SDS011;36212;48.838;9.142;2022-07-22T05:24:33;15.73;;;14.30;;
2544;SDS011;36212;48.838;9.142;2022-07-22T05:27:05;13.87;;;12.67;;
2544;SDS011;36212;48.838;9.142;2022-07-22T05:29:37;15.60;;;14.20;;
2544;SDS011;36212;48.838;9.142;2022-07-22T05:32:18;14.13;;;13.13;;
2544;SDS011;36212;48.838;9.142;2022-07-22T05:34:50;15.90;;;13.60;;
2544;SDS011;36212;48.838;9.142;2022-07-22T05:37:22;14.87;;;13.60;;
2544;SDS011;36212;48.838;9.142;2022-07-22T05:39:54;15.33;;;14.03;;
2544;SDS011;36212;48.838;9.142;2022-07-22T05:42:26;14.70;;;13.53;;
2544;SDS011;36212;48.838;9.142;2022-07-22T05:44:58;14.60;;;13.30;;
2544;SDS011;36212;48.838;9.142;2022-07-22T05:47:30;13.93;;;12.83;;
2544;SDS011;36212;48.838;9.142;2022-07-22T05:50:02;14.53;;;13.43;;
2544;SDS011;36212;48.838;9.142;2022-07-22T05:52:35;14.73;;;13.57;;
2544;SDS011;36212;48.838;9.142;2022-07-22T05:55:08;14.20;;;12.90;;
2544;SDS011;36212;48.838;9.142;2022-07-22T05:57:41;13.67;;;12.67;;
2544;SDS011;36212;48.838;9.142;2022-07-22T06:00:13;13.60;;;12.63;;
2544;SDS011;36212;48.838;9.142;2022-07-22T06:02:46;13.50;;;12.40;;
2544;SDS011;36212;48.838;9.142;2022-07-22T06:05:19;14.30;;;13.10;;
2544;SDS011;36212;48.838;9.142;2022-07-22T06:08:07;13.33;;;12.43;;
2544;SDS011;36212;48.838;9.142;2022-07-22T06:10:39;12.50;;;11.60;;
2544;SDS011;36212;48.838;9.142;2022-07-22T06:13:11;12.37;;;11.57;;
2544;SDS011;36212;48.838;9.142;2022-07-22T06:15:43;12.20;;;11.40;;
2544;SDS011;36212;48.838;9.142;2022-07-22T06:18:16;12.63;;;11.67;;
2544;SDS011;36212;48.838;9.142;2022-07-22T06:20:48;12.13;;;11.20;;
2544;SDS011;36212;48.838;9.142;2022-07-22T06:23:20;11.67;;;10.87;;
2544;SDS011;36212;48.838;9.142;2022-07-22T06:25:55;11.30;;;10.37;;
2544;SDS011;36212;48.838;9.142;2022-07-22T06:28:27;10.70;;;9.90;;
2544;SDS011;36212;48.838;9.142;2022-07-22T06:30:59;10.23;;;9.17;;
2544;SDS011;36212;48.838;9.142;2022-07-22T06:33:32;9.73;;;8.83;;
2544;SDS011;36212;48.838;9.142;2022-07-22T06:36:05;9.53;;;8.73;;
2544;SDS011;36212;48.838;9.142;2022-07-22T06:38:37;8.73;;;8.13;;
2544;SDS011;36212;48.838;9.142;2022-07-22T06:41:12;9.30;;;8.50;;
2544;SDS011;36212;48.838;9.142;2022-07-22T06:43:48;8.70;;;8.10;;
2544;SDS011;36212;48.838;9.142;2022-07-22T06:46:20;8.80;;;8.20;;
2544;SDS011;36212;48.838;9.142;2022-07-22T06:48:53;8.83;;;8.10;;
2544;SDS011;36212;48.838;9.142;2022-07-22T06:51:26;8.20;;;7.70;;
2544;SDS011;36212;48.838;9.142;2022-07-22T06:53:58;7.80;;;7.30;;
2544;SDS011;36212;48.838;9.142;2022-07-22T06:56:33;8.53;;;7.93;;
2544;SDS011;36212;48.838;9.142;2022-07-22T06:59:06;8.40;;;7.70;;
2544;SDS011;36212;48.838;9.142;2022-07-22T07:01:38;8.90;;;8.20;;
2544;SDS011;36212;48.838;9.142;2022-07-22T07:04:10;7.83;;;7.33;;
2544;SDS011;36212;48.838;9.142;2022-07-22T07:06:43;7.70;;;7.20;;
2544;SDS011;36212;48.838;9.142;2022-07-22T07:09:15;8.07;;;7.57;;
2544;SDS011;36212;48.838;9.142;2022-07-22T07:11:55;8.30;;;7.77;;
2544;SDS011;36212;48.838;9.142;2022-07-22T07:14:27;8.20;;;7.60;;
2544;SDS011;36212;48.838;9.142;2022-07-22T07:16:59;8.23;;;7.63;;
2544;SDS011;36212;48.838;9.142;2022-07-22T07:19:32;8.20;;;7.60;;
2544;SDS011;36212;48.838;9.142;2022-07-22T07:22:04;7.97;;;7.47;;
2544;SDS011;36212;48.838;9.142;2022-07-22T07:24:37;9.70;;;8.90;;
2544;SDS011;36212;48.838;9.142;2022-07-22T07:27:09;8.30;;;7.60;;
2544;SDS011;36212;48.838;9.142;2022-07-22T07:29:42;9.53;;;8.93;;
2544;SDS011;36212;48.838;9.142;2022-07-22T07:32:16;8.40;;;7.87;;
2544;SDS011;36212;48.838;9.142;2022-07-22T07:34:48;8.50;;;7.97;;
2544;SDS011;36212;48.838;9.142;2022-07-22T07:37:20;8.53;;;7.73;;
2544;SDS011;36212;48.838;9.142;2022-07-22T07:39:52;7.50;;;7.00;;
2544;SDS011;36212;48.838;9.142;2022-07-22T07:42:25;7.70;;;7.20;;
2544;SDS011;36212;48.838;9.142;2022-07-22T07:44:59;8.50;;;8.00;;
2544;SDS011;36212;48.838;9.142;2022-07-22T07:47:32;9.70;;;9.00;;
2544;SDS011;36212;48.838;9.142;2022-07-22T07:50:05;9.33;;;8.53;;
2544;SDS011;36212;48.838;9.142;2022-07-22T07:52:40;9.03;;;8.33;;
2544;SDS011;36212;48.838;9.142;2022-07-22T07:55:21;8.00;;;7.50;;
2544;SDS011;36212;48.838;9.142;2022-07-22T07:57:54;8.97;;;8.27;;
2544;SDS011;36212;48.838;9.142;2022-07-22T08:00:26;9.73;;;8.97;;
2544;SDS011;36212;48.838;9.142;2022-07-22T08:03:02;9.83;;;9.10;;
2544;SDS011;36212;48.838;9.142;2022-07-22T08:05:37;8.83;;;8.33;;
2544;SDS011;36212;48.838;9.142;2022-07-22T08:08:10;8.77;;;8.10;;
2544;SDS011;36212;48.838;9.142;2022-07-22T08:10:47;7.50;;;7.00;;
2544;SDS011;36212;48.838;9.142;2022-07-22T08:13:37;10.20;;;9.50;;
2544;SDS011;36212;48.838;9.142;2022-07-22T08:16:11;9.77;;;9.17;;
2544;SDS011;36212;48.838;9.142;2022-07-22T08:18:43;7.53;;;7.10;;
2544;SDS011;36212;48.838;9.142;2022-07-22T08:21:18;9.17;;;8.63;;
2544;SDS011;36212;48.838;9.142;2022-07-22T08:23:50;8.10;;;7.60;;
2544;SDS011;36212;48.838;9.142;2022-07-22T08:26:25;7.93;;;7.27;;
2544;SDS011;36212;48.838;9.142;2022-07-22T08:29:03;9.67;;;8.77;;
2544;SDS011;36212;48.838;9.142;2022-07-22T08:31:38;8.47;;;7.97;;
2544;SDS011;36212;48.838;9.142;2022-07-22T08:34:10;7.70;;;7.30;;
2544;SDS011;36212;48.838;9.142;2022-07-22T08:36:42;9.67;;;8.87;;
2544;SDS011;36212;48.838;9.142;2022-07-22T08:39:14;9.73;;;8.67;;
2544;SDS011;36212;48.838;9.142;2022-07-22T08:41:53;9.50;;;8.80;;
2544;SDS011;36212;48.838;9.142;2022-07-22T08:44:30;9.37;;;8.53;;
2544;SDS011;36212;48.838;9.142;2022-07-22T08:47:03;8.57;;;7.97;;
2544;SDS011;36212;48.838;9.142;2022-07-22T08:49:56;9.80;;;9.00;;
2544;SDS011;36212;48.838;9.142;2022-07-22T08:52:29;8.93;;;8.33;;
2544;SDS011;36212;48.838;9.142;2022-07-22T08:55:04;8.90;;;8.40;;
2544;SDS011;36212;48.838;9.142;2022-07-22T08:57:44;9.13;;;8.53;;
2544;SDS011;36212;48.838;9.142;2022-07-22T09:00:19;8.27;;;7.47;;
2544;SDS011;36212;48.838;9.142;2022-07-22T09:02:53;8.23;;;7.60;;
2544;SDS011;36212;48.838;9.142;2022-07-22T09:05:25;10.13;;;9.37;;
2544;SDS011;36212;48.838;9.142;2022-07-22T09:08:15;10.00;;;9.13;;
2544;SDS011;36212;48.838;9.142;2022-07-22T09:10:49;9.63;;;8.73;;
2544;SDS011;36212;48.838;9.142;2022-07-22T09:13:22;9.43;;;8.73;;
2544;SDS011;36212;48.838;9.142;2022-07-22T09:15:55;9.47;;;8.80;;
2544;SDS011;36212;48.838;9.142;2022-07-22T09:18:27;9.60;;;8.90;;
2544;SDS011;36212;48.838;9.142;2022-07-22T09:21:20;9.10;;;8.60;;
2544;SDS011;36212;48.838;9.142;2022-07-22T09:23:53;8.90;;;8.30;;
2544;SDS011;36212;48.838;9.142;2022-07-22T09:26:33;8.40;;;7.90;;
2544;SDS011;36212;48.838;9.142;2022-07-22T09:29:09;9.50;;;8.70;;
2544;SDS011;36212;48.838;9.142;2022-07-22T09:31:43;9.27;;;8.67;;
2544;SDS011;36212;48.838;9.142;2022-07-22T09:34:26;9.30;;;8.60;;
2544;SDS011;36212;48.838;9.142;2022-07-22T09:37:01;8.60;;;8.00;;
2544;SDS011;36212;48.838;9.142;2022-07-22T09:39:34;9.33;;;8.67;;
2544;SDS011;36212;48.838;9.142;2022-07-22T09:42:07;10.23;;;9.43;;
2544;SDS011;36212;48.838;9.142;2022-07-22T09:44:39;8.97;;;8.27;;
2544;SDS011;36212;48.838;9.142;2022-07-22T09:47:26;10.47;;;9.57;;
2544;SDS011;36212;48.838;9.142;2022-07-22T09:50:31;9.00;;;8.30;;
2544;SDS011;36212;48.838;9.142;2022-07-22T09:53:04;8.60;;;7.90;;
2544;SDS011;36212;48.838;9.142;2022-07-22T09:55:37;8.77;;;8.17;;
2544;SDS011;36212;48.838;9.142;2022-07-22T09:58:12;9.20;;;8.60;;
2544;SDS011;36212;48.838;9.142;2022-07-22T10:00:45;9.80;;;8.90;;
2544;SDS011;36212;48.838;9.142;2022-07-22T10:03:32;8.30;;;7.80;;
2544;SDS011;36212;48.838;9.142;2022-07-22T10:06:12;8.70;;;8.20;;
2544;SDS011;36212;48.838;9.142;2022-07-22T10:08:44;8.13;;;7.53;;
2544;SDS011;36212;48.838;9.142;2022-07-22T10:11:17;8.93;;;8.07;;
2544;SDS011;36212;48.838;9.142;2022-07-22T10:13:49;7.50;;;7.10;;
2544;SDS011;36212;48.838;9.142;2022-07-22T10:16:22;7.50;;;6.90;;
2544;SDS011;36212;48.838;9.142;2022-07-22T10:18:56;7.80;;;7.30;;
2544;SDS011;36212;48.838;9.142;2022-07-22T10:21:32;8.87;;;8.23;;
2544;SDS011;36212;48.838;9.142;2022-07-22T10:24:06;8.00;;;7.40;;
2544;SDS011;36212;48.838;9.142;2022-07-22T10:32:25;8.70;;;8.10;;
2544;SDS011;36212;48.838;9.142;2022-07-22T10:37:55;8.17;;;7.50;;
2544;SDS011;36212;48.838;9.142;2022-07-22T10:40:47;8.73;;;8.03;;
2544;SDS011;36212;48.838;9.142;2022-07-22T10:43:26;8.73;;;8.03;;
2544;SDS011;36212;48.838;9.142;2022-07-22T10:46:15;7.70;;;7.13;;
2544;SDS011;36212;48.838;9.142;2022-07-22T10:48:47;8.60;;;8.00;;
2544;SDS011;36212;48.838;9.142;2022-07-22T10:51:21;8.13;;;7.53;;
2544;SDS011;36212;48.838;9.142;2022-07-22T10:53:57;8.63;;;8.03;;
2544;SDS011;36212;48.838;9.142;2022-07-22T10:56:34;7.83;;;7.23;;
2544;SDS011;36212;48.838;9.142;2022-07-22T10:59:12;8.63;;;8.00;;
2544;SDS011;36212;48.838;9.142;2022-07-22T11:01:49;8.27;;;7.67;;
2544;SDS011;36212;48.838;9.142;2022-07-22T11:04:27;7.63;;;7.23;;
2544;SDS011;36212;48.838;9.142;2022-07-22T11:07:02;7.40;;;6.87;;
2544;SDS011;36212;48.838;9.142;2022-07-22T11:09:36;7.23;;;6.83;;
2544;SDS011;36212;48.838;9.142;2022-07-22T11:12:12;8.10;;;7.40;;
2544;SDS011;36212;48.838;9.142;2022-07-22T11:14:44;7.73;;;7.10;;
2544;SDS011;36212;48.838;9.142;2022-07-22T11:17:17;7.87;;;7.37;;
2544;SDS011;36212;48.838;9.142;2022-07-22T11:19:56;7.30;;;6.80;;
2544;SDS011;36212;48.838;9.142;2022-07-22T11:22:28;7.10;;;6.63;;
2544;SDS011;36212;48.838;9.142;2022-07-22T11:25:03;7.33;;;6.83;;
2544;SDS011;36212;48.838;9.142;2022-07-22T11:27:47;7.63;;;7.13;;
2544;SDS011;36212;48.838;9.142;2022-07-22T11:30:23;9.23;;;8.27;;
2544;SDS011;36212;48.838;9.142;2022-07-22T11:32:55;7.20;;;6.80;;
2544;SDS011;36212;48.838;9.142;2022-07-22T11:35:27;7.10;;;6.70;;
2544;SDS011;36212;48.838;9.142;2022-07-22T11:37:59;8.77;;;7.80;;
2544;SDS011;36212;48.838;9.142;2022-07-22T11:40:32;6.97;;;6.57;;
2544;SDS011;36212;48.838;9.142;2022-07-22T11:43:05;8.07;;;7.37;;
2544;SDS011;36212;48.838;9.142;2022-07-22T11:45:54;7.67;;;7.17;;
2544;SDS011;36212;48.838;9.142;2022-07-22T11:48:27;7.17;;;6.77;;
2544;SDS011;36212;48.838;9.142;2022-07-22T11:51:00;7.20;;;6.70;;
2544;SDS011;36212;48.838;9.142;2022-07-22T11:53:36;7.23;;;6.63;;
2544;SDS011;36212;48.838;9.142;2022-07-22T11:56:10;8.00;;;6.90;;
2544;SDS011;36212;48.838;9.142;2022-07-22T11:58:45;7.53;;;6.93;;
2544;SDS011;36212;48.838;9.142;2022-07-22T12:01:22;7.37;;;6.97;;
2544;SDS011;36212;48.838;9.142;2022-07-22T12:03:58;7.77;;;7.23;;
2544;SDS011;36212;48.838;9.142;2022-07-22T12:06:39;7.80;;;7.30;;
2544;SDS011;36212;48.838;9.142;2022-07-22T12:09:14;7.03;;;6.63;;
2544;SDS011;36212;48.838;9.142;2022-07-22T12:11:55;7.13;;;6.73;;
2544;SDS011;36212;48.838;9.142;2022-07-22T12:14:33;7.03;;;6.53;;
2544;SDS011;36212;48.838;9.142;2022-07-22T12:19:41;7.13;;;6.63;;
2544;SDS011;36212;48.838;9.142;2022-07-22T12:22:21;7.10;;;6.50;;
2544;SDS011;36212;48.838;9.142;2022-07-22T12:24:58;7.60;;;7.00;;
2544;SDS011;36212;48.838;9.142;2022-07-22T12:27:33;7.57;;;7.07;;
2544;SDS011;36212;48.838;9.142;2022-07-22T12:30:14;6.73;;;6.33;;
2544;SDS011;36212;48.838;9.142;2022-07-22T12:32:46;7.30;;;6.73;;
2544;SDS011;36212;48.838;9.142;2022-07-22T12:35:23;6.80;;;6.40;;
2544;SDS011;36212;48.838;9.142;2022-07-22T12:37:57;8.80;;;6.50;;
2544;SDS011;36212;48.838;9.142;2022-07-22T12:40:40;7.00;;;6.33;;
2544;SDS011;36212;48.838;9.142;2022-07-22T12:43:12;7.30;;;6.80;;
2544;SDS011;36212;48.838;9.142;2022-07-22T12:45:44;6.47;;;5.97;;
2544;SDS011;36212;48.838;9.142;2022-07-22T12:48:18;6.80;;;6.30;;
2544;SDS011;36212;48.838;9.142;2022-07-22T12:50:57;7.30;;;6.70;;
2544;SDS011;36212;48.838;9.142;2022-07-22T12:53:30;7.87;;;7.23;;
2544;SDS011;36212;48.838;9.142;2022-07-22T12:56:06;6.43;;;6.03;;
2544;SDS011;36212;48.838;9.142;2022-07-22T12:58:42;6.80;;;6.40;;
2544;SDS011;36212;48.838;9.142;2022-07-22T13:01:15;6.80;;;6.30;;
2544;SDS011;36212;48.838;9.142;2022-07-22T13:03:53;6.80;;;6.33;;
2544;SDS011;36212;48.838;9.142;2022-07-22T13:06:25;6.73;;;6.33;;
2544;SDS011;36212;48.838;9.142;2022-07-22T13:08:57;7.30;;;6.90;;
2544;SDS011;36212;48.838;9.142;2022-07-22T13:11:29;6.63;;;6.33;;
2544;SDS011;36212;48.838;9.142;2022-07-22T13:14:14;7.00;;;6.60;;
2544;SDS011;36212;48.838;9.142;2022-07-22T13:16:48;6.77;;;6.37;;
2544;SDS011;36212;48.838;9.142;2022-07-22T13:19:20;6.60;;;6.20;;
2544;SDS011;36212;48.838;9.142;2022-07-22T13:21:56;7.03;;;6.47;;
2544;SDS011;36212;48.838;9.142;2022-07-22T13:24:31;6.67;;;6.17;;
2544;SDS011;36212;48.838;9.142;2022-07-22T13:27:08;6.20;;;5.90;;
2544;SDS011;36212;48.838;9.142;2022-07-22T13:29:41;6.40;;;6.00;;
2544;SDS011;36212;48.838;9.142;2022-07-22T13:32:16;7.13;;;6.73;;
2544;SDS011;36212;48.838;9.142;2022-07-22T13:34:52;6.50;;;6.10;;
2544;SDS011;36212;48.838;9.142;2022-07-22T13:37:25;6.13;;;5.80;;
2544;SDS011;36212;48.838;9.142;2022-07-22T13:39:57;5.67;;;5.37;;
2544;SDS011;36212;48.838;9.142;2022-07-22T13:42:30;6.20;;;5.80;;
2544;SDS011;36212;48.838;9.142;2022-07-22T13:45:02;5.80;;;5.50;;
2544;SDS011;36212;48.838;9.142;2022-07-22T13:47:56;5.97;;;5.67;;
2544;SDS011;36212;48.838;9.142;2022-07-22T13:50:29;5.90;;;5.60;;
2544;SDS011;36212;48.838;9.142;2022-07-22T13:53:01;6.60;;;6.20;;
2544;SDS011;36212;48.838;9.142;2022-07-22T13:55:33;6.17;;;5.87;;
2544;SDS011;36212;48.838;9.142;2022-07-22T13:58:08;5.73;;;5.43;;
2544;SDS011;36212;48.838;9.142;2022-07-22T14:00:40;5.70;;;5.30;;
2544;SDS011;36212;48.838;9.142;2022-07-22T14:03:13;6.70;;;6.20;;
2544;SDS011;36212;48.838;9.142;2022-07-22T14:05:45;5.60;;;5.30;;
2544;SDS011;36212;48.838;9.142;2022-07-22T14:08:17;5.90;;;5.60;;
2544;SDS011;36212;48.838;9.142;2022-07-22T14:10:49;6.13;;;5.57;;
2544;SDS011;36212;48.838;9.142;2022-07-22T14:13:22;6.67;;;6.03;;
2544;SDS011;36212;48.838;9.142;2022-07-22T14:15:54;5.53;;;5.23;;
2544;SDS011;36212;48.838;9.142;2022-07-22T14:18:26;6.23;;;5.83;;
2544;SDS011;36212;48.838;9.142;2022-07-22T14:20:58;5.80;;;5.40;;
2544;SDS011;36212;48.838;9.142;2022-07-22T14:23:30;6.27;;;5.87;;
2544;SDS011;36212;48.838;9.142;2022-07-22T14:26:02;6.40;;;5.80;;
2544;SDS011;36212;48.838;9.142;2022-07-22T14:28:35;5.60;;;5.30;;
2544;SDS011;36212;48.838;9.142;2022-07-22T14:31:07;5.73;;;5.53;;
2544;SDS011;36212;48.838;9.142;2022-07-22T14:33:39;5.50;;;5.20;;
2544;SDS011;36212;48.838;9.142;2022-07-22T14:36:11;6.00;;;5.67;;
2544;SDS011;36212;48.838;9.142;2022-07-22T14:38:43;5.80;;;5.40;;
2544;SDS011;36212;48.838;9.142;2022-07-22T14:41:16;5.80;;;5.50;;
2544;SDS011;36212;48.838;9.142;2022-07-22T14:43:49;6.07;;;5.77;;
2544;SDS011;36212;48.838;9.142;2022-07-22T14:46:21;6.20;;;5.60;;
2544;SDS011;36212;48.838;9.142;2022-07-22T14:48:53;5.63;;;5.23;;
2544;SDS011;36212;48.838;9.142;2022-07-22T14:51:26;5.40;;;5.10;;
2544;SDS011;36212;48.838;9.142;2022-07-22T14:53:58;6.33;;;5.83;;
2544;SDS011;36212;48.838;9.142;2022-07-22T14:56:31;5.70;;;5.40;;
2544;SDS011;36212;48.838;9.142;2022-07-22T14:59:03;5.30;;;5.00;;
2544;SDS011;36212;48.838;9.142;2022-07-22T15:01:36;6.07;;;5.57;;
2544;SDS011;36212;48.838;9.142;2022-07-22T15:04:12;5.83;;;5.53;;
2544;SDS011;36212;48.838;9.142;2022-07-22T15:06:44;5.27;;;4.97;;
2544;SDS011;36212;48.838;9.142;2022-07-22T15:12:52;6.40;;;5.83;;
2544;SDS011;36212;48.838;9.142;2022-07-22T15:15:25;5.63;;;5.33;;
2544;SDS011;36212;48.838;9.142;2022-07-22T15:17:57;6.37;;;6.03;;
2544;SDS011;36212;48.838;9.142;2022-07-22T15:20:30;6.10;;;5.73;;
2544;SDS011;36212;48.838;9.142;2022-07-22T15:23:04;5.93;;;5.53;;
2544;SDS011;36212;48.838;9.142;2022-07-22T15:25:39;5.73;;;5.43;;
2544;SDS011;36212;48.838;9.142;2022-07-22T15:28:11;5.87;;;5.37;;
2544;SDS011;36212;48.838;9.142;2022-07-22T15:31:04;5.60;;;5.30;;
2544;SDS011;36212;48.838;9.142;2022-07-22T15:33:36;6.00;;;5.50;;
2544;SDS011;36212;48.838;9.142;2022-07-22T15:36:10;5.70;;;5.40;;
2544;SDS011;36212;48.838;9.142;2022-07-22T15:38:43;5.40;;;4.97;;
2544;SDS011;36212;48.838;9.142;2022-07-22T15:41:15;5.23;;;5.00;;
2544;SDS011;36212;48.838;9.142;2022-07-22T15:43:48;5.80;;;5.50;;
2544;SDS011;36212;48.838;9.142;2022-07-22T15:46:20;5.80;;;5.47;;
2544;SDS011;36212;48.838;9.142;2022-07-22T15:48:52;6.10;;;5.80;;
2544;SDS011;36212;48.838;9.142;2022-07-22T15:51:25;5.80;;;5.40;;